createdAt,value
2017-08-23T00:01:30.745Z,81.80
2017-08-23T00:03:59.079Z,81.70
2017-08-23T00:06:27.410Z,81.40
2017-08-23T00:08:55.734Z,81.40
2017-08-23T00:11:24.061Z,82.20
2017-08-23T00:13:52.374Z,82.20
2017-08-23T00:16:20.710Z,81.60
2017-08-23T00:18:49.031Z,80.90
2017-08-23T00:21:17.340Z,81.20
2017-08-23T00:23:45.653Z,81.70
2017-08-23T00:26:13.961Z,82.10
2017-08-23T00:28:42.290Z,82.10
2017-08-23T00:31:10.605Z,82.20
2017-08-23T00:33:38.934Z,82.80
2017-08-23T00:36:07.253Z,82.20
2017-08-23T00:38:35.595Z,82.40
2017-08-23T00:41:03.902Z,82.10
2017-08-23T00:43:32.225Z,81.90
2017-08-23T00:46:00.542Z,81.70
2017-08-23T00:48:28.952Z,82.00
2017-08-23T00:50:57.284Z,81.40
2017-08-23T00:53:25.654Z,80.30
2017-08-23T00:55:54.004Z,80.40
2017-08-23T00:58:22.323Z,80.90
2017-08-23T01:00:50.651Z,81.10
2017-08-23T01:03:18.983Z,81.50
2017-08-23T01:05:47.320Z,83.10
2017-08-23T01:08:15.640Z,82.60
2017-08-23T01:10:43.979Z,83.10
2017-08-23T01:13:12.311Z,83.60
2017-08-23T01:15:40.638Z,83.20
2017-08-23T01:18:08.945Z,82.50
2017-08-23T01:20:37.289Z,82.20
2017-08-23T01:23:05.604Z,82.10
2017-08-23T01:25:33.961Z,82.50
2017-08-23T01:28:02.268Z,82.70
2017-08-23T01:30:30.605Z,83.50
2017-08-23T01:32:58.926Z,84.30
2017-08-23T01:35:27.247Z,84.10
2017-08-23T01:37:55.570Z,83.50
2017-08-23T01:40:23.873Z,83.80
2017-08-23T01:42:52.236Z,83.80
2017-08-23T01:45:20.558Z,83.10
2017-08-23T01:47:48.913Z,83.10
2017-08-23T01:50:17.235Z,82.90
2017-08-23T01:52:45.574Z,83.10
2017-08-23T01:55:13.952Z,83.30
2017-08-23T01:57:42.284Z,83.30
2017-08-23T02:00:10.594Z,81.80
2017-08-23T02:02:38.955Z,82.90
2017-08-23T02:05:07.273Z,82.80
2017-08-23T02:07:35.630Z,82.70
2017-08-23T02:10:03.951Z,83.00
2017-08-23T02:12:32.290Z,82.80
2017-08-23T02:15:00.609Z,84.00
2017-08-23T02:17:28.960Z,84.10
2017-08-23T02:19:57.307Z,84.90
2017-08-23T02:22:25.614Z,84.10
2017-08-23T02:24:53.951Z,83.40
2017-08-23T02:27:22.274Z,83.30
2017-08-23T02:29:50.603Z,83.40
2017-08-23T02:32:18.922Z,83.50
2017-08-23T02:34:47.262Z,82.90
2017-08-23T02:37:15.594Z,84.20
2017-08-23T02:39:43.957Z,84.20
2017-08-23T02:42:12.374Z,83.70
2017-08-23T02:44:40.710Z,84.10
2017-08-23T02:47:09.045Z,83.90
2017-08-23T02:49:37.386Z,83.50
2017-08-23T02:52:05.690Z,83.30
2017-08-23T02:54:34.032Z,82.90
2017-08-23T02:57:02.421Z,83.70
2017-08-23T02:59:30.787Z,83.10
2017-08-23T03:01:59.128Z,82.90
2017-08-23T03:04:27.435Z,82.80
2017-08-23T03:06:55.775Z,84.20
2017-08-23T03:09:24.083Z,83.50
2017-08-23T03:11:52.405Z,83.30
2017-08-23T03:14:20.700Z,84.60
2017-08-23T03:16:49.039Z,84.20
2017-08-23T03:19:17.352Z,84.50
2017-08-23T03:21:45.677Z,83.90
2017-08-23T03:24:13.981Z,84.20
2017-08-23T03:26:42.305Z,84.90
2017-08-23T03:29:10.624Z,84.80
2017-08-23T03:31:40.119Z,85.10
2017-08-23T03:34:08.426Z,84.20
2017-08-23T03:36:36.750Z,83.80
2017-08-23T03:39:05.071Z,83.80
2017-08-23T03:41:44.001Z,83.80
2017-08-23T03:44:12.307Z,84.40
2017-08-23T03:46:40.646Z,84.70
2017-08-23T03:49:08.963Z,85.50
2017-08-23T03:51:37.539Z,85.30
2017-08-23T03:54:05.874Z,85.20
2017-08-23T03:56:34.186Z,84.40
2017-08-23T03:59:02.513Z,84.60
2017-08-23T04:01:30.813Z,85.50
2017-08-23T04:03:59.138Z,84.90
2017-08-23T04:06:27.445Z,84.70
2017-08-23T04:08:56.903Z,84.90
2017-08-23T04:11:25.209Z,85.50
2017-08-23T04:13:53.534Z,84.70
2017-08-23T04:16:21.845Z,84.80
2017-08-23T04:18:50.177Z,84.90
2017-08-23T04:21:18.514Z,85.10
2017-08-23T04:23:46.847Z,85.00
2017-08-23T04:26:15.154Z,84.40
2017-08-23T04:28:43.492Z,84.50
2017-08-23T04:31:12.553Z,85.60
2017-08-23T04:33:40.857Z,85.60
2017-08-23T04:36:09.177Z,85.30
2017-08-23T04:38:37.481Z,84.80
2017-08-23T04:41:05.807Z,85.00
2017-08-23T04:43:34.122Z,85.40
2017-08-23T04:46:04.403Z,85.20
2017-08-23T04:48:32.707Z,85.50
2017-08-23T04:51:01.025Z,85.80
2017-08-23T04:53:29.322Z,87.20
2017-08-23T04:56:16.927Z,85.70
2017-08-23T04:58:52.434Z,85.90
2017-08-23T05:01:21.437Z,86.20
2017-08-23T05:03:49.753Z,85.80
2017-08-23T05:06:18.087Z,85.90
2017-08-23T05:08:48.558Z,86.50
2017-08-23T05:11:17.143Z,86.10
2017-08-23T05:13:51.759Z,86.30
2017-08-23T05:16:20.085Z,85.60
2017-08-23T05:18:48.412Z,85.70
2017-08-23T05:21:22.157Z,85.80
2017-08-23T05:23:50.472Z,86.20
2017-08-23T05:26:18.810Z,85.90
2017-08-23T05:28:47.150Z,85.80
2017-08-23T05:31:15.468Z,85.80
2017-08-23T05:33:43.796Z,86.00
2017-08-23T05:36:15.886Z,86.20
2017-08-23T05:38:47.769Z,86.60
2017-08-23T05:41:16.933Z,87.00
2017-08-23T05:43:45.268Z,87.10
2017-08-23T05:46:13.614Z,86.50
2017-08-23T05:48:41.933Z,86.30
2017-08-23T05:51:11.182Z,86.50
2017-08-23T05:53:39.513Z,86.10
2017-08-23T05:56:07.831Z,85.80
2017-08-23T05:58:36.142Z,85.60
2017-08-23T06:01:04.477Z,85.10
2017-08-23T06:03:32.781Z,85.40
2017-08-23T06:06:03.135Z,85.20
2017-08-23T06:08:31.442Z,85.00
2017-08-23T06:10:59.765Z,84.50
2017-08-23T06:13:29.074Z,84.00
2017-08-23T06:15:58.255Z,82.80
2017-08-23T06:18:28.583Z,82.80
2017-08-23T06:20:56.906Z,82.40
2017-08-23T06:23:25.213Z,81.50
2017-08-23T06:25:53.539Z,82.10
2017-08-23T06:28:21.850Z,80.70
2017-08-23T06:30:53.378Z,79.50
2017-08-23T06:33:23.673Z,79.70
2017-08-23T06:35:52.010Z,79.10
2017-08-23T06:38:22.268Z,80.00
2017-08-23T06:40:52.296Z,79.50
2017-08-23T06:43:21.545Z,78.90
2017-08-23T06:46:06.825Z,78.20
2017-08-23T06:48:35.145Z,79.10
2017-08-23T06:51:03.451Z,78.60
2017-08-23T06:53:31.785Z,78.50
2017-08-23T06:56:00.098Z,78.30
2017-08-23T06:58:28.434Z,76.10
2017-08-23T07:00:56.751Z,76.10
2017-08-23T07:03:25.070Z,76.80
2017-08-23T07:05:53.377Z,79.30
2017-08-23T07:08:21.701Z,78.10
2017-08-23T07:10:50.048Z,76.70
2017-08-23T07:13:18.371Z,75.20
2017-08-23T07:15:47.450Z,73.50
2017-08-23T07:18:15.791Z,73.40
2017-08-23T07:20:44.126Z,75.00
2017-08-23T07:23:12.479Z,75.20
2017-08-23T07:25:40.802Z,74.00
2017-08-23T07:28:09.125Z,74.10
2017-08-23T07:30:37.487Z,74.40
2017-08-23T07:33:05.792Z,75.90
2017-08-23T07:35:34.124Z,73.00
2017-08-23T07:38:02.439Z,72.10
2017-08-23T07:40:30.775Z,73.30
2017-08-23T07:42:59.112Z,74.20
2017-08-23T07:45:27.438Z,71.70
2017-08-23T07:47:55.740Z,69.30
2017-08-23T07:50:24.070Z,69.10
2017-08-23T07:52:52.386Z,71.20
2017-08-23T07:55:20.717Z,71.50
2017-08-23T07:57:49.030Z,70.20
2017-08-23T08:00:17.354Z,70.50
2017-08-23T08:02:45.725Z,69.40
2017-08-23T08:05:14.056Z,69.40
2017-08-23T08:07:42.377Z,66.20
2017-08-23T08:10:10.702Z,66.20
2017-08-23T08:12:39.028Z,68.10
2017-08-23T08:15:07.338Z,68.10
2017-08-23T08:17:35.671Z,65.50
2017-08-23T08:20:04.002Z,64.90
2017-08-23T08:22:32.338Z,66.70
2017-08-23T08:25:00.651Z,67.00
2017-08-23T08:27:28.985Z,65.50
2017-08-23T08:29:57.294Z,65.50
2017-08-23T08:32:25.622Z,65.00
2017-08-23T08:34:53.933Z,64.50
2017-08-23T08:37:22.330Z,67.50
2017-08-23T08:39:50.642Z,65.20
2017-08-23T08:42:18.965Z,66.30
2017-08-23T08:44:47.282Z,64.00
2017-08-23T08:47:15.618Z,64.60
2017-08-23T08:49:43.936Z,64.30
2017-08-23T08:52:13.046Z,63.40
2017-08-23T08:54:41.358Z,63.50
2017-08-23T08:57:09.674Z,66.40
2017-08-23T08:59:38.057Z,63.00
2017-08-23T09:02:06.377Z,62.30
2017-08-23T09:04:34.712Z,63.40
2017-08-23T09:07:03.022Z,62.50
2017-08-23T09:09:31.393Z,60.70
2017-08-23T09:11:59.707Z,58.80
2017-08-23T09:14:28.038Z,61.20
2017-08-23T09:16:56.349Z,62.30
2017-08-23T09:19:24.683Z,62.50
2017-08-23T09:21:52.992Z,61.90
2017-08-23T09:24:21.321Z,62.10
2017-08-23T09:26:49.632Z,60.40
2017-08-23T09:29:17.980Z,60.40
2017-08-23T09:31:46.287Z,59.90
2017-08-23T09:34:14.590Z,60.10
2017-08-23T09:36:42.926Z,58.10
2017-08-23T09:39:11.234Z,58.90
2017-08-23T09:41:39.570Z,58.80
2017-08-23T09:44:07.890Z,56.90
2017-08-23T09:46:36.230Z,57.50
2017-08-23T09:49:04.558Z,60.50
2017-08-23T09:51:32.890Z,57.70
2017-08-23T09:54:01.198Z,58.00
2017-08-23T09:56:29.529Z,57.50
2017-08-23T09:58:57.834Z,57.20
2017-08-23T10:01:26.165Z,55.70
2017-08-23T10:03:54.460Z,54.70
2017-08-23T10:06:22.786Z,54.60
2017-08-23T10:08:51.114Z,56.60
2017-08-23T10:11:25.826Z,55.00
2017-08-23T10:13:54.122Z,57.20
2017-08-23T10:16:22.470Z,55.20
2017-08-23T10:18:50.780Z,56.10
2017-08-23T10:21:19.081Z,52.60
2017-08-23T10:23:47.421Z,53.30
2017-08-23T10:26:15.719Z,52.70
2017-08-23T10:28:44.049Z,53.00
2017-08-23T10:31:13.129Z,52.10
2017-08-23T10:33:41.463Z,52.10
2017-08-23T10:36:09.762Z,51.50
2017-08-23T10:38:38.098Z,53.90
2017-08-23T10:41:06.414Z,53.20
2017-08-23T10:43:34.774Z,52.00
2017-08-23T10:46:03.084Z,49.90
2017-08-23T10:48:31.407Z,53.40
2017-08-23T10:50:59.723Z,53.70
2017-08-23T10:53:28.060Z,52.40
2017-08-23T10:55:56.366Z,51.00
2017-08-23T10:58:24.694Z,50.40
2017-08-23T11:00:53.007Z,49.30
2017-08-23T11:03:21.348Z,50.70
2017-08-23T11:05:50.430Z,50.90
2017-08-23T11:08:18.739Z,50.90
2017-08-23T11:10:47.068Z,52.00
2017-08-23T11:13:15.379Z,48.70
2017-08-23T11:15:43.697Z,50.90
2017-08-23T11:18:12.005Z,49.90
2017-08-23T11:20:40.338Z,49.40
2017-08-23T11:23:08.642Z,49.10
2017-08-23T11:25:36.966Z,49.60
2017-08-23T11:28:05.265Z,49.10
2017-08-23T11:30:33.599Z,50.00
2017-08-23T11:33:01.901Z,49.40
2017-08-23T11:35:30.232Z,46.10
2017-08-23T11:37:58.545Z,47.10
2017-08-23T11:40:26.886Z,47.50
2017-08-23T11:42:55.185Z,47.10
2017-08-23T11:45:23.518Z,46.10
2017-08-23T11:47:51.869Z,47.80
2017-08-23T11:50:20.178Z,50.90
2017-08-23T11:52:48.510Z,45.80
2017-08-23T11:55:16.820Z,47.20
2017-08-23T11:57:45.906Z,48.30
2017-08-23T12:00:14.201Z,48.30
2017-08-23T12:02:42.553Z,46.60
2017-08-23T12:05:10.864Z,47.70
2017-08-23T12:07:39.193Z,47.70
2017-08-23T12:10:08.273Z,46.10
2017-08-23T12:12:36.607Z,46.10
2017-08-23T12:15:04.919Z,47.30
2017-08-23T12:17:33.262Z,47.30
2017-08-23T12:20:01.576Z,46.80
2017-08-23T12:22:29.881Z,48.50
2017-08-23T12:24:58.216Z,47.80
2017-08-23T12:27:26.525Z,48.00
2017-08-23T12:29:54.894Z,47.10
2017-08-23T12:32:23.193Z,46.10
2017-08-23T12:34:51.521Z,46.00
2017-08-23T12:37:19.821Z,47.40
2017-08-23T12:39:48.149Z,47.10
2017-08-23T12:42:16.446Z,47.50
2017-08-23T12:44:44.780Z,47.60
2017-08-23T12:47:13.091Z,46.30
2017-08-23T12:49:41.418Z,47.30
2017-08-23T12:52:09.714Z,47.20
2017-08-23T12:54:38.038Z,45.00
2017-08-23T12:57:06.391Z,46.10
2017-08-23T12:59:35.577Z,47.50
2017-08-23T13:02:04.038Z,47.50
2017-08-23T13:04:32.338Z,47.60
2017-08-23T13:07:00.712Z,47.70
2017-08-23T13:09:29.022Z,46.10
2017-08-23T13:11:57.346Z,45.30
2017-08-23T13:14:25.654Z,43.10
2017-08-23T13:16:53.983Z,45.70
2017-08-23T13:19:22.290Z,46.20
2017-08-23T13:21:50.614Z,45.90
2017-08-23T13:24:18.918Z,47.80
2017-08-23T13:26:47.242Z,45.70
2017-08-23T13:29:15.543Z,45.90
2017-08-23T13:31:43.882Z,44.70
2017-08-23T13:34:12.177Z,44.60
2017-08-23T13:36:40.509Z,43.00
2017-08-23T13:39:08.814Z,44.30
2017-08-23T13:41:37.115Z,45.20
2017-08-23T13:44:05.437Z,44.00
2017-08-23T13:46:33.747Z,45.10
2017-08-23T13:49:02.095Z,47.00
2017-08-23T13:51:30.396Z,46.60
2017-08-23T13:53:58.722Z,46.50
2017-08-23T13:56:27.022Z,47.70
2017-08-23T13:58:55.351Z,48.90
2017-08-23T14:01:23.662Z,48.70
2017-08-23T14:03:51.985Z,47.10
2017-08-23T14:06:20.294Z,47.40
2017-08-23T14:08:48.615Z,46.80
2017-08-23T14:11:16.923Z,47.10
2017-08-23T14:13:45.263Z,46.40
2017-08-23T14:16:13.565Z,48.10
2017-08-23T14:18:41.893Z,45.20
2017-08-23T14:21:10.204Z,48.40
2017-08-23T14:23:38.534Z,46.40
2017-08-23T14:26:06.871Z,45.20
2017-08-23T14:28:35.154Z,45.60
2017-08-23T14:31:03.478Z,47.50
2017-08-23T14:33:31.786Z,48.40
2017-08-23T14:36:00.119Z,46.80
2017-08-23T14:38:28.419Z,46.10
2017-08-23T14:40:56.749Z,46.60
2017-08-23T14:43:25.055Z,45.50
2017-08-23T14:45:53.386Z,47.40
2017-08-23T14:48:21.705Z,46.20
2017-08-23T14:50:50.059Z,47.20
2017-08-23T14:53:18.365Z,46.30
2017-08-23T14:55:47.461Z,46.90
2017-08-23T14:58:15.774Z,46.50
2017-08-23T15:04:12.831Z,46.30
2017-08-23T15:06:41.173Z,46.80
2017-08-23T15:09:09.493Z,45.90
2017-08-23T15:11:37.816Z,49.00
2017-08-23T15:14:09.569Z,47.90
2017-08-23T15:16:37.920Z,47.60
2017-08-23T15:19:06.225Z,47.50
2017-08-23T15:21:34.563Z,45.90
2017-08-23T15:24:02.878Z,46.10
2017-08-23T15:26:31.198Z,47.60
2017-08-23T15:28:59.501Z,45.30
2017-08-23T15:31:27.876Z,45.80
2017-08-23T15:33:56.185Z,45.00
2017-08-23T15:36:24.487Z,46.80
2017-08-23T15:38:52.866Z,46.30
2017-08-23T15:41:22.171Z,45.60
2017-08-23T15:43:50.508Z,44.90
2017-08-23T15:46:18.826Z,46.50
2017-08-23T15:48:47.153Z,47.60
2017-08-23T15:51:17.387Z,48.50
2017-08-23T15:53:45.737Z,47.60
2017-08-23T15:56:14.054Z,47.50
2017-08-23T15:58:42.386Z,47.00
2017-08-23T16:01:11.458Z,47.10
2017-08-23T16:03:40.632Z,47.10
2017-08-23T16:06:08.953Z,47.00
2017-08-23T16:08:37.290Z,49.60
2017-08-23T16:11:05.593Z,48.10
2017-08-23T16:13:33.942Z,48.70
2017-08-23T16:16:02.250Z,47.80
2017-08-23T16:18:30.553Z,47.30
2017-08-23T16:20:58.879Z,48.50
2017-08-23T16:23:27.190Z,49.20
2017-08-23T16:25:55.525Z,45.40
2017-08-23T16:28:23.842Z,45.40
2017-08-23T16:30:52.184Z,47.80
2017-08-23T16:33:20.489Z,49.40
2017-08-23T16:35:48.826Z,47.90
2017-08-23T16:38:17.133Z,49.20
2017-08-23T16:40:45.482Z,48.60
2017-08-23T16:43:13.792Z,49.80
2017-08-23T16:45:42.122Z,49.20
2017-08-23T16:48:10.434Z,50.20
2017-08-23T16:50:38.775Z,49.40
2017-08-23T16:53:07.089Z,49.50
2017-08-23T16:55:35.426Z,49.60
2017-08-23T16:58:03.742Z,50.50
2017-08-23T17:00:32.051Z,51.50
2017-08-23T17:03:00.385Z,50.10
2017-08-23T17:05:28.702Z,51.20
2017-08-23T17:07:57.042Z,49.80
2017-08-23T17:10:25.345Z,50.20
2017-08-23T17:12:53.669Z,51.20
2017-08-23T17:15:21.979Z,51.80
2017-08-23T17:17:50.321Z,53.20
2017-08-23T17:20:19.393Z,54.40
2017-08-23T17:22:47.731Z,54.40
2017-08-23T17:25:16.038Z,53.60
2017-08-23T17:27:44.384Z,53.40
2017-08-23T17:30:12.698Z,53.00
2017-08-23T17:32:41.009Z,53.60
2017-08-23T17:35:10.101Z,54.60
2017-08-23T17:37:38.436Z,54.60
2017-08-23T17:40:06.763Z,54.60
2017-08-23T17:42:35.843Z,55.40
2017-08-23T17:45:04.186Z,55.40
2017-08-23T17:47:32.499Z,56.20
2017-08-23T17:50:00.834Z,57.00
2017-08-23T17:52:29.165Z,58.90
2017-08-23T17:54:57.508Z,57.80
2017-08-23T17:57:25.815Z,58.20
2017-08-23T17:59:54.934Z,58.30
2017-08-23T18:02:23.245Z,58.70
2017-08-23T18:04:51.572Z,58.80
2017-08-23T18:07:20.795Z,58.60
2017-08-23T18:09:49.118Z,59.40
2017-08-23T18:12:17.424Z,60.30
2017-08-23T18:14:46.665Z,60.60
2017-08-23T18:17:14.980Z,61.20
2017-08-23T18:19:43.319Z,61.30
2017-08-23T18:22:11.639Z,61.30
2017-08-23T18:24:39.949Z,61.30
2017-08-23T18:27:08.272Z,61.00
2017-08-23T18:29:36.565Z,61.60
2017-08-23T18:32:04.905Z,61.90
2017-08-23T18:34:33.214Z,62.20
2017-08-23T18:37:01.549Z,62.90
2017-08-23T18:39:29.977Z,63.20
2017-08-23T18:41:58.314Z,63.50
2017-08-23T18:44:26.616Z,63.50
2017-08-23T18:46:55.014Z,64.00
2017-08-23T18:49:23.327Z,64.40
2017-08-23T18:51:51.754Z,65.00
2017-08-23T18:54:20.063Z,65.70
2017-08-23T18:56:48.394Z,65.30
2017-08-23T18:59:16.722Z,65.30
2017-08-23T19:01:45.059Z,65.10
2017-08-23T19:04:13.382Z,65.10
2017-08-23T19:06:41.725Z,64.40
2017-08-23T19:09:10.031Z,65.10
2017-08-23T19:11:38.342Z,65.30
2017-08-23T19:14:06.669Z,65.10
2017-08-23T19:16:34.981Z,65.00
2017-08-23T19:19:03.306Z,65.30
2017-08-23T19:21:31.615Z,66.00
2017-08-23T19:23:59.938Z,66.50
2017-08-23T19:26:28.242Z,67.00
2017-08-23T19:28:56.569Z,66.40
2017-08-23T19:31:24.879Z,66.80
2017-08-23T19:33:53.210Z,67.50
2017-08-23T19:36:21.517Z,68.00
2017-08-23T19:38:49.853Z,68.00
2017-08-23T19:41:18.161Z,67.70
2017-08-23T19:43:46.497Z,67.10
2017-08-23T19:46:14.808Z,67.50
2017-08-23T19:48:43.138Z,67.70
2017-08-23T19:51:11.447Z,67.90
2017-08-23T19:53:39.757Z,68.10
2017-08-23T19:56:08.078Z,68.30
2017-08-23T19:58:36.384Z,68.80
2017-08-23T20:01:04.710Z,68.80
2017-08-23T20:03:33.018Z,68.60
2017-08-23T20:06:01.346Z,68.50
2017-08-23T20:08:29.686Z,69.70
2017-08-23T20:10:58.019Z,69.90
2017-08-23T20:13:26.342Z,70.10
2017-08-23T20:15:54.670Z,71.00
2017-08-23T20:18:22.983Z,70.70
2017-08-23T20:20:51.330Z,70.80
2017-08-23T20:23:19.642Z,71.40
2017-08-23T20:25:47.970Z,72.50
2017-08-23T20:28:16.617Z,72.70
2017-08-23T20:30:44.978Z,72.70
2017-08-23T20:33:13.281Z,72.20
2017-08-23T20:35:41.593Z,71.60
2017-08-23T20:38:09.925Z,72.30
2017-08-23T20:40:38.278Z,73.20
2017-08-23T20:43:06.610Z,73.30
2017-08-23T20:45:34.925Z,73.80
2017-08-23T20:48:03.255Z,74.10
2017-08-23T20:50:31.566Z,74.30
2017-08-23T20:52:59.904Z,74.50
2017-08-23T20:55:28.214Z,74.50
2017-08-23T20:57:56.553Z,74.80
2017-08-23T21:00:24.857Z,74.70
2017-08-23T21:02:53.190Z,75.00
2017-08-23T21:05:21.516Z,75.60
2017-08-23T21:07:49.842Z,76.40
2017-08-23T21:10:18.145Z,76.30
2017-08-23T21:12:46.497Z,75.50
2017-08-23T21:15:14.801Z,75.30
2017-08-23T21:17:43.110Z,76.10
2017-08-23T21:20:11.447Z,76.40
2017-08-23T21:22:39.747Z,75.30
2017-08-23T21:25:08.085Z,75.90
2017-08-23T21:27:37.305Z,76.30
2017-08-23T21:30:05.637Z,76.70
2017-08-23T21:32:33.941Z,77.30
2017-08-23T21:35:02.286Z,77.30
2017-08-23T21:37:30.593Z,77.60
2017-08-23T21:39:59.677Z,77.00
2017-08-23T21:42:27.982Z,76.80
2017-08-23T21:44:56.301Z,76.50
2017-08-23T21:47:24.605Z,76.50
2017-08-23T21:49:52.929Z,77.30
2017-08-23T21:52:21.251Z,77.40
2017-08-23T21:54:49.577Z,77.70
2017-08-23T21:57:17.880Z,77.70
2017-08-23T21:59:46.229Z,78.20
2017-08-23T22:02:14.533Z,78.30
2017-08-23T22:04:42.843Z,78.60
2017-08-23T22:07:11.171Z,78.80
2017-08-23T22:09:39.478Z,78.60
2017-08-23T22:12:07.808Z,79.10
2017-08-23T22:14:36.102Z,79.00
2017-08-23T22:17:04.431Z,79.00
2017-08-23T22:19:32.748Z,79.70
2017-08-23T22:22:01.138Z,80.40
2017-08-23T22:24:29.442Z,80.20
2017-08-23T22:26:57.765Z,79.50
2017-08-23T22:29:26.085Z,79.20
2017-08-23T22:31:54.411Z,80.10
2017-08-23T22:34:22.713Z,79.60
2017-08-23T22:36:51.050Z,79.50
2017-08-23T22:39:19.358Z,80.20
2017-08-23T22:41:47.663Z,80.40
2017-08-23T22:44:15.998Z,80.50
2017-08-23T22:46:44.310Z,81.00
2017-08-23T22:49:12.638Z,81.40
2017-08-23T22:51:40.949Z,80.90
2017-08-23T22:54:10.041Z,80.10
2017-08-23T22:56:38.344Z,80.10
2017-08-23T22:59:06.674Z,80.30
2017-08-23T23:01:34.974Z,80.60
2017-08-23T23:04:03.313Z,80.10
2017-08-23T23:06:31.625Z,80.90
2017-08-23T23:08:59.946Z,80.40
2017-08-23T23:11:31.831Z,79.90
2017-08-23T23:14:00.164Z,80.20
2017-08-23T23:16:28.470Z,80.30
2017-08-23T23:18:56.793Z,80.80
2017-08-23T23:21:25.097Z,80.80
2017-08-23T23:23:53.430Z,82.30
2017-08-23T23:26:21.747Z,81.60
2017-08-23T23:28:50.069Z,81.60
2017-08-23T23:31:18.396Z,81.50
2017-08-23T23:33:46.710Z,80.20
2017-08-23T23:36:15.034Z,81.10
2017-08-23T23:38:43.349Z,82.10
2017-08-23T23:41:11.678Z,81.10
2017-08-23T23:43:39.984Z,82.00
2017-08-23T23:46:08.313Z,82.10
2017-08-23T23:48:36.614Z,81.50
2017-08-23T23:51:04.942Z,81.40
2017-08-23T23:53:33.242Z,80.10
2017-08-23T23:56:01.576Z,80.20
2017-08-23T23:58:29.888Z,81.40
